TPOK1: Kansas River, State-Line, KS

                                SHEF ID:       TPOK1     MARAIS DES CYGNES R NR KS-MO ST
STATION TYPE:

STAGE STAGE(2) RIV-FLOW BAT-LOAD
ft ft cfs volt
Ccp-Rev Ccp-Rev Ccp-Rev Ccp-Rev
(America/Chicago)
07/06 00:00 8.17 8.12 2231 12.50
07/06 01:00 8.11 8.12 2194 12.49
07/06 02:00 8.07 8.09 2169 12.48
07/06 03:00 8.04 8.05 2151 12.44
07/06 04:00 7.98 7.99 2115 12.43
07/06 05:00 7.97 7.95 2109 12.42
07/06 06:00 7.99 7.97 2121 12.38
07/06 07:00 8.01 7.98 2133 12.37
07/06 08:00 8.09 8.08 2182 12.41
07/06 09:00 8.14 8.17 2212 12.80
07/06 10:00 8.27 8.24 2292 13.31
07/06 11:00 8.41 8.39 2380 12.89
07/06 12:00 8.55 8.56 2469 13.25
07/06 13:00 8.70 8.66 2565 13.28
07/06 14:00 8.84 8.85 2656 13.26
07/06 15:00 8.99 9.00 2755 13.09
07/06 16:00 9.12 9.17 2842 12.94
07/06 17:00 9.26 9.27 2937 12.89
07/06 18:00 9.34 9.34 2991 12.73
07/06 19:00 9.44 9.48 3060 12.65
07/06 20:00 9.54 9.57 3129 12.62
07/06 21:00 9.59 9.58 3164 12.57
07/06 22:00 9.61 9.63 3178 12.57
07/06 23:00 9.62 9.62 3185 12.53
Data processed at Wed 08Jul2026 15:28 GMT

NOTICE: If you are parsing this page

Please convert to using our Data API. Starting early 2026 we will be migrating to: https://water.usace.army.mil with modern pages rendered in JavaScript. When this migration completes you will no longer be able to scrape this page! CWMSDataAPI (CDA)

Timeseries IDs (TSIDs)

TSIDs used from left to right in the data table
MKSL.Stage.Inst.1Hour.0.Ccp-Rev
MKSL.Stage-Alt.Inst.1Hour.0.Ccp-Rev
MKSL.Flow.Inst.1Hour.0.Ccp-Rev
MKSL.Volt-Battery Load.Inst.1Hour.0.Ccp-Rev

                            

All information presented herein is the property of the government of the United States of America and may be revised or deleted at any time without prior notice. Dissemination of this information without the expressed written consent of the Public Affairs Office, Tulsa District U.S. Army Corps of Engineers is strictly prohibited. These data are gathered electronically and, as presented, have NOT undergone any form of quality control. These data are NOT guaranteed to be valid or correct.